createdAt,value
2018-05-19T00:02:14.832Z,10.60
2018-05-19T00:04:42.292Z,10.50
2018-05-19T00:07:09.760Z,10.60
2018-05-19T00:09:37.233Z,10.60
2018-05-19T00:12:04.692Z,10.50
2018-05-19T00:14:32.256Z,10.50
2018-05-19T00:16:59.719Z,10.50
2018-05-19T00:19:27.197Z,10.50
2018-05-19T00:21:55.443Z,10.50
2018-05-19T00:24:22.903Z,10.50
2018-05-19T00:26:50.368Z,10.50
2018-05-19T00:29:17.921Z,10.50
2018-05-19T00:31:45.388Z,10.50
2018-05-19T00:34:12.862Z,10.60
2018-05-19T00:36:41.084Z,10.60
2018-05-19T00:39:08.556Z,10.60
2018-05-19T00:41:36.024Z,10.60
2018-05-19T00:44:03.521Z,10.60
2018-05-19T00:46:30.993Z,10.60
2018-05-19T00:48:58.457Z,10.70
2018-05-19T00:51:25.920Z,10.60
2018-05-19T00:53:53.396Z,10.60
2018-05-19T00:56:20.969Z,10.60
2018-05-19T00:58:48.461Z,10.60
2018-05-19T01:01:15.920Z,10.50
2018-05-19T01:03:43.380Z,10.50
2018-05-19T01:06:10.892Z,10.50
2018-05-19T01:08:38.452Z,10.50
2018-05-19T01:11:05.928Z,10.50
2018-05-19T01:13:34.155Z,10.50
2018-05-19T01:16:01.620Z,10.50
2018-05-19T01:18:29.091Z,10.50
2018-05-19T01:20:56.569Z,10.50
2018-05-19T01:23:24.024Z,10.50
2018-05-19T01:25:51.488Z,10.50
2018-05-19T01:28:19.716Z,10.60
2018-05-19T01:30:47.188Z,10.60
2018-05-19T01:33:14.656Z,10.60
2018-05-19T01:35:42.124Z,10.60
2018-05-19T01:38:09.587Z,10.60
2018-05-19T01:40:37.811Z,10.50
2018-05-19T01:43:05.278Z,10.50
2018-05-19T01:45:32.768Z,10.50
2018-05-19T01:48:00.224Z,10.50
2018-05-19T01:50:27.701Z,10.50
2018-05-19T01:52:55.937Z,10.50
2018-05-19T01:55:23.395Z,10.50
2018-05-19T01:57:50.864Z,10.50
2018-05-19T02:00:18.325Z,10.60
2018-05-19T02:02:45.877Z,10.50
2018-05-19T02:05:13.436Z,10.60
2018-05-19T02:07:40.954Z,10.60
2018-05-19T02:10:08.453Z,10.60
2018-05-19T02:12:35.913Z,10.60
2018-05-19T02:15:03.463Z,10.50
2018-05-19T02:17:30.933Z,10.60
2018-05-19T02:19:58.388Z,10.50
2018-05-19T02:22:25.856Z,10.50
2018-05-19T02:24:54.080Z,10.50
2018-05-19T02:27:21.545Z,10.50
2018-05-19T02:29:49.009Z,10.50
2018-05-19T02:32:16.517Z,10.50
2018-05-19T02:34:43.991Z,10.40
2018-05-19T02:37:11.454Z,10.40
2018-05-19T02:39:39.447Z,10.40
2018-05-19T02:42:06.917Z,10.40
2018-05-19T02:44:34.373Z,10.30
2018-05-19T02:47:01.839Z,10.30
2018-05-19T02:49:29.384Z,10.40
2018-05-19T02:51:56.763Z,10.40
2018-05-19T02:54:25.000Z,10.30
2018-05-19T02:56:52.482Z,10.30
2018-05-19T02:59:20.761Z,10.30
2018-05-19T03:01:48.316Z,10.30
2018-05-19T03:04:15.784Z,10.20
2018-05-19T03:06:43.256Z,10.20
2018-05-19T03:09:11.481Z,10.30
2018-05-19T03:11:38.968Z,10.30
2018-05-19T03:14:06.433Z,10.30
2018-05-19T03:16:34.657Z,10.40
2018-05-19T03:19:02.113Z,10.40
2018-05-19T03:21:29.588Z,10.40
2018-05-19T03:23:57.044Z,10.40
2018-05-19T03:26:24.504Z,10.40
2018-05-19T03:28:52.005Z,10.40
2018-05-19T03:31:20.249Z,10.30
2018-05-19T03:33:47.697Z,10.40
2018-05-19T03:36:15.156Z,10.40
2018-05-19T03:38:42.629Z,10.40
2018-05-19T03:41:10.090Z,10.40
2018-05-19T03:43:37.544Z,10.40
2018-05-19T03:46:05.017Z,10.40
2018-05-19T03:48:33.241Z,10.50
2018-05-19T03:51:00.712Z,10.50
2018-05-19T03:53:28.171Z,10.50
2018-05-19T03:55:55.644Z,10.40
2018-05-19T03:58:34.852Z,10.40
2018-05-19T04:01:14.171Z,10.40
2018-05-19T04:03:41.636Z,10.40
2018-05-19T04:06:09.115Z,10.40
2018-05-19T04:08:36.565Z,10.40
2018-05-19T04:11:04.042Z,10.40
2018-05-19T04:13:31.504Z,10.40
2018-05-19T04:15:59.724Z,10.40
2018-05-19T04:18:27.201Z,10.40
2018-05-19T04:20:54.647Z,10.30
2018-05-19T04:23:22.133Z,10.30
2018-05-19T04:25:49.601Z,10.40
2018-05-19T04:28:17.065Z,10.40
2018-05-19T04:30:45.300Z,10.40
2018-05-19T04:33:12.748Z,10.40
2018-05-19T04:35:40.216Z,10.40
2018-05-19T04:38:07.672Z,10.40
2018-05-19T04:40:35.154Z,10.50
2018-05-19T04:43:02.613Z,10.50
2018-05-19T04:45:30.071Z,10.50
2018-05-19T04:47:57.540Z,10.50
2018-05-19T04:50:25.824Z,10.40
2018-05-19T04:52:54.133Z,10.30
2018-05-19T04:55:21.524Z,10.30
2018-05-19T04:57:49.215Z,10.40
2018-05-19T05:00:17.464Z,10.30
2018-05-19T05:02:44.931Z,10.30
2018-05-19T05:05:12.397Z,10.30
2018-05-19T05:07:39.932Z,10.30
2018-05-19T05:10:07.409Z,10.20
2018-05-19T05:12:34.869Z,10.20
2018-05-19T05:15:03.130Z,10.20
2018-05-19T05:17:31.400Z,10.30
2018-05-19T05:19:58.872Z,10.20
2018-05-19T05:22:26.357Z,10.20
2018-05-19T05:24:53.812Z,10.30
2018-05-19T05:27:21.265Z,10.30
2018-05-19T05:29:49.493Z,10.40
2018-05-19T05:32:17.351Z,10.40
2018-05-19T05:34:44.826Z,10.50
2018-05-19T05:37:12.300Z,10.50
2018-05-19T05:39:40.538Z,10.50
2018-05-19T05:42:08.013Z,10.40
2018-05-19T05:44:35.472Z,10.50
2018-05-19T05:47:02.933Z,10.50
2018-05-19T05:49:30.412Z,10.50
2018-05-19T05:51:58.638Z,10.40
2018-05-19T05:54:26.110Z,10.40
2018-05-19T05:56:53.622Z,10.50
2018-05-19T05:59:21.817Z,10.50
2018-05-19T06:01:49.300Z,10.50
2018-05-19T06:04:16.820Z,10.50
2018-05-19T06:06:44.288Z,10.60
2018-05-19T06:09:11.760Z,10.60
2018-05-19T06:11:39.225Z,10.60
2018-05-19T06:14:06.700Z,10.60
2018-05-19T06:16:34.992Z,10.60
2018-05-19T06:19:03.221Z,10.50
2018-05-19T06:21:30.697Z,10.50
2018-05-19T06:23:58.158Z,10.50
2018-05-19T06:26:25.629Z,10.60
2018-05-19T06:28:53.100Z,10.70
2018-05-19T06:31:21.342Z,10.80
2018-05-19T06:33:48.804Z,10.80
2018-05-19T06:36:16.291Z,10.80
2018-05-19T06:38:44.522Z,10.70
2018-05-19T06:41:12.002Z,10.70
2018-05-19T06:43:39.464Z,10.80
2018-05-19T06:46:07.709Z,11.00
2018-05-19T06:48:35.179Z,11.00
2018-05-19T06:51:02.637Z,11.20
2018-05-19T06:53:30.120Z,11.30
2018-05-19T06:55:58.361Z,11.20
2018-05-19T06:58:25.852Z,11.20
2018-05-19T07:00:54.096Z,11.20
2018-05-19T07:03:21.553Z,11.20
2018-05-19T07:05:49.018Z,11.10
2018-05-19T07:08:16.513Z,11.10
2018-05-19T07:10:43.978Z,11.10
2018-05-19T07:13:11.445Z,11.20
2018-05-19T07:15:38.955Z,11.20
2018-05-19T07:18:07.192Z,11.60
2018-05-19T07:20:34.650Z,11.60
2018-05-19T07:23:02.141Z,11.70
2018-05-19T07:25:29.599Z,11.70
2018-05-19T07:27:57.056Z,11.80
2018-05-19T07:30:24.511Z,11.70
2018-05-19T07:32:51.974Z,11.60
2018-05-19T07:35:20.212Z,11.80
2018-05-19T07:37:47.672Z,11.70
2018-05-19T07:40:15.134Z,11.80
2018-05-19T07:42:42.648Z,11.80
2018-05-19T07:45:10.100Z,11.80
2018-05-19T07:47:37.577Z,11.60
2018-05-19T07:50:05.039Z,11.60
2018-05-19T07:52:32.501Z,11.50
2018-05-19T07:54:59.972Z,11.60
2018-05-19T07:57:27.437Z,11.70
2018-05-19T07:59:54.888Z,11.80
2018-05-19T08:02:22.355Z,11.80
2018-05-19T08:04:49.820Z,11.90
2018-05-19T08:07:17.289Z,12.00
2018-05-19T08:09:45.513Z,12.00
2018-05-19T08:12:12.965Z,12.00
2018-05-19T08:14:40.440Z,12.20
2018-05-19T08:17:07.904Z,12.30
2018-05-19T08:19:35.360Z,12.30
2018-05-19T08:22:02.816Z,12.40
2018-05-19T08:24:30.288Z,12.60
2018-05-19T08:26:57.759Z,12.60
2018-05-19T08:29:25.214Z,12.50
2018-05-19T08:31:52.687Z,12.40
2018-05-19T08:34:20.908Z,12.40
2018-05-19T08:36:48.375Z,12.40
2018-05-19T08:39:15.852Z,12.30
2018-05-19T08:41:43.312Z,12.10
2018-05-19T08:44:10.785Z,12.10
2018-05-19T08:46:39.021Z,12.30
2018-05-19T08:49:06.478Z,12.20
2018-05-19T08:51:33.960Z,12.20
2018-05-19T08:54:01.426Z,12.20
2018-05-19T08:56:29.653Z,12.20
2018-05-19T08:58:57.124Z,12.20
2018-05-19T09:01:24.601Z,12.20
2018-05-19T09:03:52.216Z,12.30
2018-05-19T09:06:19.684Z,12.40
2018-05-19T09:08:47.144Z,12.50
2018-05-19T09:11:14.612Z,12.50
2018-05-19T09:13:42.081Z,12.60
2018-05-19T09:16:09.549Z,12.60
2018-05-19T09:18:37.005Z,12.60
2018-05-19T09:21:04.464Z,12.70
2018-05-19T09:23:31.925Z,12.50
2018-05-19T09:26:00.167Z,12.70
2018-05-19T09:28:27.625Z,12.60
2018-05-19T09:30:55.099Z,12.60
2018-05-19T09:33:22.569Z,12.70
2018-05-19T09:35:50.126Z,12.60
2018-05-19T09:38:19.168Z,12.60
2018-05-19T09:40:46.629Z,12.50
2018-05-19T09:43:14.090Z,12.50
2018-05-19T09:45:41.556Z,12.50
2018-05-19T09:48:09.017Z,12.70
2018-05-19T09:50:36.499Z,12.70
2018-05-19T09:53:04.024Z,12.70
2018-05-19T09:55:31.425Z,12.70
2018-05-19T09:57:59.668Z,12.60
2018-05-19T10:00:27.129Z,12.60
2018-05-19T10:02:54.598Z,12.60
2018-05-19T10:05:22.056Z,12.60
2018-05-19T10:07:49.513Z,12.60
2018-05-19T10:10:17.872Z,12.70
2018-05-19T10:12:45.333Z,12.80
2018-05-19T10:15:12.800Z,12.90
2018-05-19T10:17:40.256Z,13.10
2018-05-19T10:20:07.717Z,12.90
2018-05-19T10:22:35.184Z,12.90
2018-05-19T10:25:03.409Z,13.00
2018-05-19T10:27:30.867Z,12.90
2018-05-19T10:29:58.327Z,13.00
2018-05-19T10:32:25.811Z,13.00
2018-05-19T10:34:53.284Z,13.00
2018-05-19T10:37:21.518Z,12.80
2018-05-19T10:39:48.968Z,12.80
2018-05-19T10:42:16.473Z,12.90
2018-05-19T10:44:43.961Z,12.80
2018-05-19T10:47:11.436Z,12.90
2018-05-19T10:49:38.916Z,13.00
2018-05-19T10:52:06.373Z,12.90
2018-05-19T10:54:33.836Z,12.90
2018-05-19T10:57:01.300Z,13.10
2018-05-19T10:59:28.765Z,13.00
2018-05-19T11:01:56.301Z,13.10
2018-05-19T11:04:23.688Z,13.20
2018-05-19T11:06:51.938Z,13.20
2018-05-19T11:09:19.409Z,13.20
2018-05-19T11:11:46.878Z,13.20
2018-05-19T11:14:15.100Z,13.10
2018-05-19T11:16:42.564Z,13.10
2018-05-19T11:19:10.117Z,13.00
2018-05-19T11:21:37.575Z,12.90
2018-05-19T11:24:05.145Z,13.10
2018-05-19T11:26:32.649Z,13.10
2018-05-19T11:29:00.930Z,13.00
2018-05-19T11:31:28.439Z,13.00
2018-05-19T11:33:55.909Z,13.20
2018-05-19T11:36:23.373Z,13.00
2018-05-19T11:38:50.855Z,12.90
2018-05-19T11:41:19.072Z,12.80
2018-05-19T11:43:46.545Z,12.80
2018-05-19T11:46:14.021Z,12.90
2018-05-19T11:48:41.481Z,13.00
2018-05-19T11:51:08.956Z,13.10
2018-05-19T11:53:37.185Z,12.80
2018-05-19T11:56:04.645Z,12.80
2018-05-19T11:58:32.100Z,12.90
2018-05-19T12:00:59.576Z,12.80
2018-05-19T12:03:27.044Z,12.80
2018-05-19T12:05:54.512Z,12.90
2018-05-19T12:08:22.743Z,13.10
2018-05-19T12:10:50.207Z,13.10
2018-05-19T12:13:18.431Z,13.40
2018-05-19T12:15:45.911Z,13.30
2018-05-19T12:18:13.368Z,13.40
2018-05-19T12:20:40.852Z,13.40
2018-05-19T12:23:08.324Z,13.30
2018-05-19T12:25:35.780Z,13.30
2018-05-19T12:28:03.260Z,13.30
2018-05-19T12:30:31.501Z,13.50
2018-05-19T12:32:58.952Z,13.50
2018-05-19T12:35:26.420Z,13.60
2018-05-19T12:37:53.884Z,13.60
2018-05-19T12:40:21.354Z,13.70
2018-05-19T12:42:49.590Z,13.80
2018-05-19T12:45:17.049Z,13.80
2018-05-19T12:47:44.516Z,13.90
2018-05-19T12:50:11.968Z,14.00
2018-05-19T12:52:39.425Z,13.90
2018-05-19T12:55:06.891Z,13.80
2018-05-19T12:57:34.367Z,13.90
2018-05-19T13:00:01.816Z,13.90
2018-05-19T13:02:29.280Z,14.10
2018-05-19T13:04:57.508Z,14.10
2018-05-19T13:07:25.000Z,14.10
2018-05-19T13:09:52.453Z,14.10
2018-05-19T13:12:19.914Z,14.30
2018-05-19T13:14:47.385Z,14.50
2018-05-19T13:17:15.604Z,14.80
2018-05-19T13:19:43.824Z,14.80
2018-05-19T13:22:11.293Z,14.80
2018-05-19T13:24:39.520Z,14.90
2018-05-19T13:27:07.781Z,14.80
2018-05-19T13:29:35.289Z,14.80
2018-05-19T13:32:02.741Z,14.90
2018-05-19T13:34:30.205Z,14.70
2018-05-19T13:36:57.793Z,14.80
2018-05-19T13:39:25.224Z,14.70
2018-05-19T13:41:52.689Z,14.90
2018-05-19T13:44:20.915Z,15.00
2018-05-19T13:46:48.421Z,14.90
2018-05-19T13:49:15.863Z,15.10
2018-05-19T13:51:43.316Z,15.30
2018-05-19T13:54:10.872Z,15.40
2018-05-19T13:56:38.329Z,15.50
2018-05-19T13:59:05.891Z,15.70
2018-05-19T14:01:33.341Z,15.70
2018-05-19T14:04:00.804Z,15.70
2018-05-19T14:06:28.259Z,15.80
2018-05-19T14:08:56.483Z,15.70
2018-05-19T14:11:23.987Z,15.70
2018-05-19T14:13:51.444Z,15.70
2018-05-19T14:16:19.117Z,15.50
2018-05-19T14:18:46.580Z,15.70
2018-05-19T14:21:14.841Z,15.70
2018-05-19T14:23:42.312Z,15.70
2018-05-19T14:26:09.788Z,15.60
2018-05-19T14:28:38.349Z,15.60
2018-05-19T14:31:05.816Z,15.50
2018-05-19T14:33:34.045Z,15.50
2018-05-19T14:36:01.525Z,15.40
2018-05-19T14:38:28.988Z,15.40
2018-05-19T14:40:56.455Z,15.30
2018-05-19T14:43:24.692Z,15.30
2018-05-19T14:45:52.152Z,15.30
2018-05-19T14:48:19.627Z,15.50
2018-05-19T14:50:47.102Z,15.60
2018-05-19T14:53:15.342Z,15.80
2018-05-19T14:55:42.812Z,15.80
2018-05-19T14:58:10.388Z,15.80
2018-05-19T15:00:37.840Z,16.00
2018-05-19T15:03:05.310Z,16.00
2018-05-19T15:05:34.072Z,16.00
2018-05-19T15:08:01.545Z,16.00
2018-05-19T15:10:29.093Z,15.80
2018-05-19T15:12:56.552Z,15.70
2018-05-19T15:15:24.022Z,15.60
2018-05-19T15:17:52.279Z,15.20
2018-05-19T15:20:19.754Z,15.20
2018-05-19T15:22:47.981Z,15.20
2018-05-19T15:25:15.481Z,15.20
2018-05-19T15:27:43.036Z,15.30
2018-05-19T15:30:10.500Z,15.40
2018-05-19T15:32:38.050Z,15.40
2018-05-19T15:35:05.520Z,15.50
2018-05-19T15:37:33.746Z,15.50
2018-05-19T15:40:01.373Z,15.50
2018-05-19T15:42:28.806Z,15.60
2018-05-19T15:44:56.357Z,15.70
2018-05-19T15:47:23.817Z,15.90
2018-05-19T15:49:51.272Z,15.80
2018-05-19T15:52:18.743Z,16.00
2018-05-19T15:54:46.973Z,15.90
2018-05-19T15:57:14.456Z,15.80
2018-05-19T15:59:41.916Z,15.80
2018-05-19T16:02:09.395Z,15.70
2018-05-19T16:04:37.629Z,15.60
2018-05-19T16:07:05.104Z,15.60
2018-05-19T16:09:32.662Z,15.40
2018-05-19T16:12:00.114Z,15.20
2018-05-19T16:14:27.675Z,15.00
2018-05-19T16:16:55.153Z,14.90
2018-05-19T16:19:22.608Z,15.10
2018-05-19T16:21:50.843Z,15.10
2018-05-19T16:24:19.136Z,15.10
2018-05-19T16:26:46.696Z,15.10
2018-05-19T16:29:14.256Z,15.10
2018-05-19T16:31:41.713Z,15.10
2018-05-19T16:34:09.228Z,15.00
2018-05-19T16:36:36.744Z,15.00
2018-05-19T16:39:04.184Z,15.10
2018-05-19T16:41:31.657Z,14.90
2018-05-19T16:43:59.121Z,14.80
2018-05-19T16:46:27.389Z,14.80
2018-05-19T16:48:55.607Z,14.70
2018-05-19T16:51:23.088Z,14.70
2018-05-19T16:53:50.547Z,14.80
2018-05-19T16:56:18.025Z,14.70
2018-05-19T16:58:47.112Z,14.80
2018-05-19T17:01:14.577Z,14.80
2018-05-19T17:03:42.028Z,14.80
2018-05-19T17:06:10.404Z,14.70
2018-05-19T17:08:37.869Z,14.70
2018-05-19T17:11:05.316Z,14.60
2018-05-19T17:13:32.803Z,14.40
2018-05-19T17:16:01.054Z,14.40
2018-05-19T17:18:28.504Z,14.40
2018-05-19T17:20:56.079Z,14.60
2018-05-19T17:23:23.532Z,14.50
2018-05-19T17:25:51.009Z,14.60
2018-05-19T17:28:19.256Z,14.60
2018-05-19T17:30:46.820Z,14.60
2018-05-19T17:33:14.345Z,14.40
2018-05-19T17:35:41.813Z,14.10
2018-05-19T17:38:09.292Z,14.10
2018-05-19T17:40:36.840Z,14.10
2018-05-19T17:43:04.413Z,14.20
2018-05-19T17:45:32.640Z,14.20
2018-05-19T17:48:00.121Z,14.20
2018-05-19T17:50:27.597Z,14.30
2018-05-19T17:52:55.976Z,14.30
2018-05-19T17:55:23.432Z,14.30
2018-05-19T17:57:50.914Z,14.20
2018-05-19T18:00:19.261Z,14.20
2018-05-19T18:02:46.896Z,14.20
2018-05-19T18:05:14.377Z,14.20
2018-05-19T18:07:41.959Z,14.20
2018-05-19T18:10:09.404Z,14.30
2018-05-19T18:12:36.861Z,14.30
2018-05-19T18:15:04.404Z,14.30
2018-05-19T18:17:31.876Z,14.40
2018-05-19T18:20:00.346Z,14.30
2018-05-19T18:22:29.328Z,14.20
2018-05-19T18:24:56.788Z,14.20
2018-05-19T18:27:24.257Z,14.10
2018-05-19T18:29:51.784Z,14.20
2018-05-19T18:32:19.969Z,14.20
2018-05-19T18:34:47.448Z,14.20
2018-05-19T18:37:15.675Z,14.30
2018-05-19T18:39:43.465Z,14.30
2018-05-19T18:42:10.922Z,14.20
2018-05-19T18:44:38.410Z,14.00
2018-05-19T18:47:05.957Z,14.00
2018-05-19T18:49:33.518Z,13.90
2018-05-19T18:52:01.071Z,14.00
2018-05-19T18:54:28.537Z,14.10
2018-05-19T18:56:56.001Z,14.00
2018-05-19T18:59:23.481Z,13.80
2018-05-19T19:01:50.944Z,13.60
2018-05-19T19:04:19.189Z,13.40
2018-05-19T19:06:46.735Z,13.40
2018-05-19T19:09:14.296Z,13.40
2018-05-19T19:11:42.533Z,13.20
2018-05-19T19:14:10.054Z,13.10
2018-05-19T19:16:37.591Z,13.10
2018-05-19T19:19:05.061Z,13.10
2018-05-19T19:21:33.288Z,13.00
2018-05-19T19:24:00.754Z,12.90
2018-05-19T19:26:28.236Z,12.90
2018-05-19T19:28:55.691Z,12.80
2018-05-19T19:31:23.228Z,12.70
2018-05-19T19:33:50.689Z,12.60
2018-05-19T19:36:18.155Z,12.70
2018-05-19T19:38:45.616Z,12.70
2018-05-19T19:41:13.077Z,12.70
2018-05-19T19:43:40.561Z,12.60
2018-05-19T19:46:08.789Z,12.50
2018-05-19T19:48:36.244Z,12.40
2018-05-19T19:51:03.716Z,12.40
2018-05-19T19:53:31.192Z,12.40
2018-05-19T19:55:59.454Z,12.40
2018-05-19T19:58:26.900Z,12.40
2018-05-19T20:00:54.365Z,12.50
2018-05-19T20:03:21.833Z,12.50
2018-05-19T20:05:49.296Z,12.50
2018-05-19T20:08:18.297Z,12.60
2018-05-19T20:10:46.531Z,12.60
2018-05-19T20:13:14.002Z,12.60
2018-05-19T20:15:41.461Z,12.60
2018-05-19T20:18:08.929Z,12.60
2018-05-19T20:20:36.387Z,12.60
2018-05-19T20:23:04.633Z,12.60
2018-05-19T20:25:32.098Z,12.60
2018-05-19T20:28:00.316Z,12.60
2018-05-19T20:30:27.897Z,12.60
2018-05-19T20:32:55.355Z,12.60
2018-05-19T20:35:22.815Z,12.70
2018-05-19T20:37:50.294Z,12.70
2018-05-19T20:40:18.115Z,12.70
2018-05-19T20:42:45.576Z,12.60
2018-05-19T20:45:13.049Z,12.70
2018-05-19T20:47:40.520Z,12.60
2018-05-19T20:50:07.982Z,12.60
2018-05-19T20:52:35.525Z,12.60
2018-05-19T20:55:02.925Z,12.60
2018-05-19T20:57:30.397Z,12.60
2018-05-19T20:59:58.629Z,12.40
2018-05-19T21:02:26.110Z,12.40
2018-05-19T21:04:53.828Z,12.40
2018-05-19T21:07:21.296Z,12.40
2018-05-19T21:09:48.764Z,12.40
2018-05-19T21:12:16.277Z,12.40
2018-05-19T21:14:44.498Z,12.40
2018-05-19T21:17:11.965Z,12.40
2018-05-19T21:19:39.428Z,12.40
2018-05-19T21:22:06.880Z,12.40
2018-05-19T21:24:34.365Z,12.40
2018-05-19T21:27:02.611Z,12.20
2018-05-19T21:29:30.071Z,12.20
2018-05-19T21:31:57.540Z,12.10
2018-05-19T21:34:25.784Z,12.00
2018-05-19T21:36:53.256Z,11.90
2018-05-19T21:39:20.720Z,11.90
2018-05-19T21:41:48.182Z,11.90
2018-05-19T21:44:15.658Z,11.80
2018-05-19T21:46:43.889Z,11.70
2018-05-19T21:49:11.373Z,11.70
2018-05-19T21:51:38.824Z,11.60
2018-05-19T21:54:06.300Z,11.60
2018-05-19T21:56:34.532Z,11.60
2018-05-19T21:59:01.991Z,11.50
2018-05-19T22:01:29.472Z,11.50
2018-05-19T22:03:56.921Z,11.50
2018-05-19T22:06:24.380Z,11.40
2018-05-19T22:08:51.919Z,11.30
2018-05-19T22:11:19.308Z,11.30
2018-05-19T22:13:47.524Z,11.20
2018-05-19T22:16:15.002Z,11.20
2018-05-19T22:18:42.464Z,11.20
2018-05-19T22:21:09.925Z,11.10
2018-05-19T22:23:37.401Z,11.00
2018-05-19T22:26:04.864Z,11.00
2018-05-19T22:28:32.329Z,10.90
2018-05-19T22:31:00.565Z,10.90
2018-05-19T22:33:28.042Z,10.80
2018-05-19T22:35:55.504Z,10.80
2018-05-19T22:38:22.977Z,10.70
2018-05-19T22:40:51.212Z,10.70
2018-05-19T22:43:18.673Z,10.70
2018-05-19T22:45:46.146Z,10.60
2018-05-19T22:48:13.596Z,10.60
2018-05-19T22:50:41.065Z,10.50
2018-05-19T22:53:08.529Z,10.50
2018-05-19T22:55:36.749Z,10.50
2018-05-19T22:58:04.230Z,10.40
2018-05-19T23:00:31.684Z,10.40
2018-05-19T23:02:59.159Z,10.40
2018-05-19T23:05:26.652Z,10.40
2018-05-19T23:07:54.112Z,10.40
2018-05-19T23:10:21.588Z,10.30
2018-05-19T23:12:49.096Z,10.30
2018-05-19T23:15:16.572Z,10.30
2018-05-19T23:17:44.799Z,10.20
2018-05-19T23:20:12.281Z,10.20
2018-05-19T23:22:43.360Z,10.20
2018-05-19T23:25:10.832Z,10.20
2018-05-19T23:27:38.288Z,10.10
2018-05-19T23:30:05.750Z,10.10
2018-05-19T23:32:33.224Z,10.00
2018-05-19T23:35:00.758Z,10.00
2018-05-19T23:37:28.221Z,10.00
2018-05-19T23:39:55.673Z,10.00
2018-05-19T23:42:23.142Z,10.00
2018-05-19T23:44:50.605Z,9.90
2018-05-19T23:47:18.758Z,9.90
2018-05-19T23:49:46.228Z,9.90
2018-05-19T23:52:13.721Z,9.80
2018-05-19T23:54:41.187Z,9.80
2018-05-19T23:57:09.404Z,9.70
2018-05-19T23:59:36.879Z,9.70
